createdAt,value
2022-09-15T00:02:16.417Z,14.00
2022-09-15T00:07:19.210Z,14.00
2022-09-15T00:12:22.020Z,14.00
2022-09-15T00:17:24.932Z,14.00
2022-09-15T00:22:28.192Z,14.10
2022-09-15T00:27:32.688Z,14.10
2022-09-15T00:32:35.684Z,14.10
2022-09-15T00:37:38.331Z,14.00
2022-09-15T00:42:41.071Z,14.00
2022-09-15T00:47:44.550Z,14.00
2022-09-15T00:52:57.236Z,14.10
2022-09-15T00:58:04.162Z,14.10
2022-09-15T01:03:07.151Z,14.10
2022-09-15T01:08:19.089Z,14.10
2022-09-15T01:13:21.787Z,14.10
2022-09-15T01:18:30.382Z,14.10
2022-09-15T01:24:07.104Z,14.10
2022-09-15T01:29:37.437Z,14.10
2022-09-15T01:34:51.126Z,14.10
2022-09-15T01:39:54.565Z,14.10
2022-09-15T01:45:11.947Z,13.80
2022-09-15T01:50:20.663Z,13.90
2022-09-15T01:55:43.178Z,14.00
2022-09-15T02:00:51.788Z,13.90
2022-09-15T02:06:23.679Z,13.90
2022-09-15T02:11:28.236Z,13.80
2022-09-15T02:16:35.422Z,13.90
2022-09-15T02:22:17.784Z,13.80
2022-09-15T02:27:24.205Z,13.90
2022-09-15T02:32:28.769Z,13.90
2022-09-15T02:37:32.130Z,13.90
2022-09-15T02:42:35.285Z,13.80
2022-09-15T02:47:37.953Z,13.80
2022-09-15T02:52:40.653Z,13.70
2022-09-15T02:57:43.377Z,13.80
2022-09-15T03:02:50.337Z,13.80
2022-09-15T03:07:53.648Z,13.60
2022-09-15T03:12:56.368Z,13.80
2022-09-15T03:18:01.745Z,13.80
2022-09-15T03:23:04.461Z,13.60
2022-09-15T03:28:07.091Z,13.60
2022-09-15T03:33:09.813Z,13.70
2022-09-15T03:38:12.859Z,13.60
2022-09-15T03:43:18.614Z,13.60
2022-09-15T03:48:21.921Z,13.50
2022-09-15T03:53:24.725Z,13.60
2022-09-15T03:58:30.626Z,13.60
2022-09-15T04:03:35.728Z,13.60
2022-09-15T04:08:42.012Z,13.70
2022-09-15T04:13:45.116Z,13.60
2022-09-15T04:18:47.790Z,13.70
2022-09-15T04:23:51.224Z,13.70
2022-09-15T04:28:54.345Z,13.60
2022-09-15T04:33:57.366Z,13.60
2022-09-15T04:39:04.395Z,13.60
2022-09-15T04:44:07.003Z,13.60
2022-09-15T04:49:09.691Z,13.60
2022-09-15T04:54:12.347Z,13.60
2022-09-15T04:59:19.534Z,13.50
2022-09-15T05:04:22.385Z,13.60
2022-09-15T05:09:26.538Z,13.60
2022-09-15T05:14:30.154Z,13.60
2022-09-15T05:19:32.901Z,13.60
2022-09-15T05:24:35.587Z,13.60
2022-09-15T05:29:38.211Z,13.60
2022-09-15T05:34:40.946Z,13.70
2022-09-15T05:39:43.678Z,13.70
2022-09-15T05:44:46.311Z,13.80
2022-09-15T05:49:48.914Z,13.80
2022-09-15T05:54:54.660Z,13.80
2022-09-15T05:59:59.728Z,13.80
2022-09-15T06:05:03.144Z,13.90
2022-09-15T06:10:06.677Z,13.90
2022-09-15T06:15:09.830Z,14.00
2022-09-15T06:20:12.609Z,14.00
2022-09-15T06:25:15.509Z,14.00
2022-09-15T06:30:19.042Z,14.10
2022-09-15T06:35:21.800Z,14.10
2022-09-15T06:40:24.552Z,14.10
2022-09-15T06:45:27.270Z,14.10
2022-09-15T06:50:31.155Z,14.10
2022-09-15T06:55:33.880Z,14.20
2022-09-15T07:00:36.570Z,14.30
2022-09-15T07:05:39.298Z,14.30
2022-09-15T07:10:45.099Z,14.30
2022-09-15T07:15:58.777Z,14.20
2022-09-15T07:21:04.031Z,14.20
2022-09-15T07:26:12.619Z,14.20
2022-09-15T07:31:18.312Z,14.30
2022-09-15T07:36:21.659Z,14.30
2022-09-15T07:41:27.075Z,14.40
2022-09-15T07:46:32.223Z,14.40
2022-09-15T07:51:35.012Z,14.40
2022-09-15T07:56:37.711Z,14.40
2022-09-15T08:01:40.799Z,14.40
2022-09-15T08:06:43.473Z,14.50
2022-09-15T08:11:46.169Z,14.60
2022-09-15T08:16:48.834Z,14.50
2022-09-15T08:21:51.556Z,14.60
2022-09-15T08:26:54.763Z,14.60
2022-09-15T08:31:57.496Z,14.60
2022-09-15T08:37:00.164Z,14.70
2022-09-15T08:42:07.428Z,14.70
2022-09-15T08:47:39.104Z,14.60
2022-09-15T08:53:09.894Z,14.70
2022-09-15T08:58:38.999Z,14.70
2022-09-15T09:04:02.768Z,14.70
2022-09-15T09:09:17.753Z,14.70
2022-09-15T09:14:33.016Z,14.70
2022-09-15T09:19:54.734Z,14.70
2022-09-15T09:25:05.885Z,14.70
2022-09-15T09:30:20.092Z,14.80
2022-09-15T09:35:47.255Z,14.80
2022-09-15T09:40:50.732Z,14.50
2022-09-15T09:45:53.608Z,14.40
2022-09-15T09:50:56.755Z,14.50
2022-09-15T09:56:28.815Z,14.60
2022-09-15T10:01:31.721Z,14.40
2022-09-15T10:06:34.553Z,14.60
2022-09-15T10:11:59.201Z,14.60
2022-09-15T10:17:09.976Z,14.20
2022-09-15T10:22:34.675Z,14.20
2022-09-15T10:27:38.003Z,14.10
2022-09-15T10:32:41.703Z,14.20
2022-09-15T10:37:56.609Z,14.40
2022-09-15T10:43:04.853Z,14.50
2022-09-15T10:48:40.954Z,14.50
2022-09-15T10:54:10.968Z,14.80
2022-09-15T10:59:43.632Z,15.20
2022-09-15T11:05:22.002Z,15.30
2022-09-15T11:10:29.574Z,15.60
2022-09-15T11:15:38.181Z,15.50
2022-09-15T11:20:57.858Z,15.60
2022-09-15T11:26:14.627Z,15.80
2022-09-15T11:31:41.258Z,15.80
2022-09-15T11:36:55.945Z,16.00
2022-09-15T11:42:10.574Z,16.00
2022-09-15T11:47:39.720Z,15.80
2022-09-15T11:52:46.264Z,15.80
2022-09-15T11:57:51.564Z,15.70
2022-09-15T12:03:00.148Z,16.00
2022-09-15T12:08:27.543Z,16.10
2022-09-15T12:13:31.636Z,16.20
2022-09-15T12:18:53.243Z,16.30
2022-09-15T12:24:13.568Z,16.50
2022-09-15T12:29:30.361Z,16.60
2022-09-15T12:34:36.867Z,16.60
2022-09-15T12:39:46.234Z,16.90
2022-09-15T12:44:57.254Z,16.80
2022-09-15T12:50:11.195Z,16.90
2022-09-15T12:55:22.701Z,16.90
2022-09-15T13:00:29.634Z,16.90
2022-09-15T13:05:46.275Z,16.80
2022-09-15T13:11:03.156Z,17.00
2022-09-15T13:16:12.212Z,17.20
2022-09-15T13:21:21.176Z,17.00
2022-09-15T13:26:27.567Z,16.80
2022-09-15T13:31:53.664Z,16.60
2022-09-15T13:43:23.448Z,16.40
2022-09-15T13:48:42.542Z,16.40
2022-09-15T13:53:45.411Z,16.30
2022-09-15T13:59:01.224Z,16.30
2022-09-15T14:04:33.394Z,16.30
2022-09-15T14:09:44.927Z,16.20
2022-09-15T14:14:54.777Z,15.90
2022-09-15T14:19:59.941Z,15.70
2022-09-15T14:25:08.965Z,15.80
2022-09-15T14:30:22.657Z,15.60
2022-09-15T14:35:31.726Z,15.70
2022-09-15T14:40:39.526Z,15.60
2022-09-15T14:45:55.049Z,15.50
2022-09-15T14:51:13.430Z,15.60
2022-09-15T14:56:22.923Z,15.60
2022-09-15T15:01:42.987Z,15.50
2022-09-15T15:06:56.183Z,15.40
2022-09-15T15:12:04.671Z,15.40
2022-09-15T15:17:23.660Z,15.40
2022-09-15T15:22:27.021Z,15.40
2022-09-15T15:27:40.633Z,15.50
2022-09-15T15:32:43.778Z,15.50
2022-09-15T15:37:47.422Z,15.30
2022-09-15T15:43:02.171Z,15.20
2022-09-15T15:48:06.217Z,15.20
2022-09-15T15:53:08.883Z,15.30
2022-09-15T15:58:15.027Z,15.30
2022-09-15T16:03:18.743Z,15.30
2022-09-15T16:08:31.667Z,15.20
2022-09-15T16:13:34.662Z,15.20
2022-09-15T16:18:38.017Z,15.10
2022-09-15T16:23:40.740Z,15.10
2022-09-15T16:28:43.566Z,15.00
2022-09-15T16:33:46.299Z,14.80
2022-09-15T16:38:49.759Z,14.70
2022-09-15T16:43:59.374Z,14.80
2022-09-15T16:49:02.078Z,14.80
2022-09-15T16:54:12.487Z,14.70
2022-09-15T16:59:15.442Z,14.80
2022-09-15T17:04:19.416Z,14.60
2022-09-15T17:09:22.123Z,14.70
2022-09-15T17:14:24.921Z,14.30
2022-09-15T17:19:27.658Z,14.40
2022-09-15T17:24:30.374Z,14.20
2022-09-15T17:29:33.020Z,14.00
2022-09-15T17:34:35.684Z,13.90
2022-09-15T17:39:38.370Z,13.80
2022-09-15T17:44:40.990Z,13.60
2022-09-15T17:49:43.632Z,13.80
2022-09-15T17:54:46.266Z,13.60
2022-09-15T17:59:48.945Z,13.70
2022-09-15T18:04:51.930Z,13.60
2022-09-15T18:09:55.674Z,13.40
2022-09-15T18:14:58.359Z,13.40
2022-09-15T18:20:01.529Z,13.40
2022-09-15T18:25:04.407Z,13.30
2022-09-15T18:30:07.796Z,13.30
2022-09-15T18:35:14.183Z,13.20
2022-09-15T18:40:20.507Z,13.00
2022-09-15T18:45:23.680Z,13.00
2022-09-15T18:50:26.719Z,13.00
2022-09-15T18:55:29.390Z,13.00
2022-09-15T19:00:32.210Z,13.00
2022-09-15T19:05:35.457Z,12.90
2022-09-15T19:10:40.832Z,13.00
2022-09-15T19:15:44.264Z,13.00
2022-09-15T19:20:47.127Z,13.00
2022-09-15T19:25:49.853Z,12.90
2022-09-15T19:30:52.603Z,12.90
2022-09-15T19:36:10.781Z,12.80
2022-09-15T19:41:18.429Z,12.90
2022-09-15T19:46:24.352Z,13.00
2022-09-15T19:51:27.323Z,12.90
2022-09-15T19:56:30.357Z,12.90
2022-09-15T20:01:33.283Z,12.90
2022-09-15T20:06:36.925Z,12.90
2022-09-15T20:11:39.627Z,12.90
2022-09-15T20:16:42.459Z,12.80
2022-09-15T20:21:51.570Z,12.90
2022-09-15T20:26:54.585Z,12.80
2022-09-15T20:31:57.594Z,12.80
2022-09-15T20:37:00.250Z,12.90
2022-09-15T20:42:02.974Z,12.90
2022-09-15T20:47:05.817Z,13.00
2022-09-15T20:52:08.473Z,13.00
2022-09-15T20:57:11.183Z,13.00
2022-09-15T21:02:13.897Z,13.00
2022-09-15T21:07:16.858Z,13.10
2022-09-15T21:12:19.470Z,13.10
2022-09-15T21:17:23.185Z,13.20
2022-09-15T21:22:26.039Z,13.20
2022-09-15T21:27:30.073Z,12.90
2022-09-15T21:32:33.904Z,13.00
2022-09-15T21:37:36.824Z,13.00
2022-09-15T21:42:39.528Z,13.00
2022-09-15T21:47:42.209Z,13.00
2022-09-15T21:52:44.890Z,12.90
2022-09-15T21:57:47.601Z,12.90
2022-09-15T22:02:52.392Z,13.00
2022-09-15T22:07:55.317Z,13.00
2022-09-15T22:12:58.310Z,12.90
2022-09-15T22:18:01.376Z,12.80
2022-09-15T22:23:04.038Z,12.80
2022-09-15T22:28:06.619Z,12.90
2022-09-15T22:33:09.316Z,12.70
2022-09-15T22:38:11.965Z,12.70
2022-09-15T22:43:14.632Z,12.80
2022-09-15T22:48:17.424Z,12.70
2022-09-15T22:53:21.194Z,12.70
2022-09-15T22:58:26.496Z,12.60
2022-09-15T23:03:29.155Z,12.70
2022-09-15T23:08:32.762Z,12.60
2022-09-15T23:13:35.679Z,12.70
2022-09-15T23:18:38.556Z,12.80
2022-09-15T23:23:46.329Z,12.60
2022-09-15T23:28:49.662Z,12.80
2022-09-15T23:33:52.332Z,12.70
2022-09-15T23:38:55.201Z,12.70
2022-09-15T23:43:59.893Z,12.70
2022-09-15T23:49:02.831Z,12.70
2022-09-15T23:54:06.480Z,12.40
2022-09-15T23:59:09.666Z,12.50
